sensor_id;sensor_type;location;lat;lon;timestamp;P1;durP1;ratioP1;P2;durP2;ratioP2
18711;SDS011;9485;49.386;8.674;2023-03-01T00:05:22;7.97;;;6.13;;
18711;SDS011;9485;49.386;8.674;2023-03-01T00:10:43;10.93;;;7.50;;
18711;SDS011;9485;49.386;8.674;2023-03-01T00:16:04;10.27;;;7.30;;
18711;SDS011;9485;49.386;8.674;2023-03-01T00:21:29;8.97;;;7.03;;
18711;SDS011;9485;49.386;8.674;2023-03-01T00:26:52;9.23;;;7.10;;
18711;SDS011;9485;49.386;8.674;2023-03-01T00:32:14;8.50;;;6.47;;
18711;SDS011;9485;49.386;8.674;2023-03-01T00:37:37;8.77;;;6.37;;
18711;SDS011;9485;49.386;8.674;2023-03-01T00:42:59;9.17;;;6.60;;
18711;SDS011;9485;49.386;8.674;2023-03-01T00:48:20;11.03;;;6.80;;
18711;SDS011;9485;49.386;8.674;2023-03-01T00:53:43;9.93;;;7.87;;
18711;SDS011;9485;49.386;8.674;2023-03-01T00:59:04;10.47;;;7.13;;
18711;SDS011;9485;49.386;8.674;2023-03-01T01:04:25;11.20;;;7.73;;
18711;SDS011;9485;49.386;8.674;2023-03-01T01:09:46;9.67;;;7.80;;
18711;SDS011;9485;49.386;8.674;2023-03-01T01:15:08;11.20;;;8.70;;
18711;SDS011;9485;49.386;8.674;2023-03-01T01:20:31;11.10;;;8.10;;
18711;SDS011;9485;49.386;8.674;2023-03-01T01:25:53;9.97;;;7.63;;
18711;SDS011;9485;49.386;8.674;2023-03-01T01:31:15;11.73;;;8.27;;
18711;SDS011;9485;49.386;8.674;2023-03-01T01:36:37;11.57;;;8.13;;
18711;SDS011;9485;49.386;8.674;2023-03-01T01:42:00;15.90;;;9.23;;
18711;SDS011;9485;49.386;8.674;2023-03-01T01:47:21;12.83;;;8.50;;
18711;SDS011;9485;49.386;8.674;2023-03-01T01:52:44;11.87;;;8.60;;
18711;SDS011;9485;49.386;8.674;2023-03-01T01:58:11;11.60;;;8.27;;
18711;SDS011;9485;49.386;8.674;2023-03-01T02:03:36;11.83;;;9.13;;
18711;SDS011;9485;49.386;8.674;2023-03-01T02:09:03;13.47;;;9.47;;
18711;SDS011;9485;49.386;8.674;2023-03-01T02:14:32;13.93;;;8.77;;
18711;SDS011;9485;49.386;8.674;2023-03-01T02:20:03;12.00;;;8.63;;
18711;SDS011;9485;49.386;8.674;2023-03-01T02:25:39;11.37;;;8.00;;
18711;SDS011;9485;49.386;8.674;2023-03-01T02:31:14;12.23;;;8.23;;
18711;SDS011;9485;49.386;8.674;2023-03-01T02:36:59;11.13;;;8.33;;
18711;SDS011;9485;49.386;8.674;2023-03-01T02:42:30;10.83;;;7.97;;
18711;SDS011;9485;49.386;8.674;2023-03-01T02:47:58;11.23;;;7.60;;
18711;SDS011;9485;49.386;8.674;2023-03-01T02:53:21;10.83;;;8.27;;
18711;SDS011;9485;49.386;8.674;2023-03-01T02:58:51;13.97;;;8.33;;
18711;SDS011;9485;49.386;8.674;2023-03-01T03:04:14;11.70;;;7.83;;
18711;SDS011;9485;49.386;8.674;2023-03-01T03:09:40;13.30;;;9.50;;
18711;SDS011;9485;49.386;8.674;2023-03-01T03:15:01;11.40;;;8.43;;
18711;SDS011;9485;49.386;8.674;2023-03-01T03:20:28;12.63;;;8.73;;
18711;SDS011;9485;49.386;8.674;2023-03-01T03:25:50;13.40;;;9.00;;
18711;SDS011;9485;49.386;8.674;2023-03-01T03:31:12;10.97;;;8.23;;
18711;SDS011;9485;49.386;8.674;2023-03-01T03:36:34;14.33;;;9.17;;
18711;SDS011;9485;49.386;8.674;2023-03-01T03:41:55;11.93;;;8.30;;
18711;SDS011;9485;49.386;8.674;2023-03-01T03:47:15;10.57;;;7.73;;
18711;SDS011;9485;49.386;8.674;2023-03-01T03:52:37;12.73;;;8.60;;
18711;SDS011;9485;49.386;8.674;2023-03-01T03:57:59;11.77;;;8.77;;
18711;SDS011;9485;49.386;8.674;2023-03-01T04:03:25;12.97;;;8.93;;
18711;SDS011;9485;49.386;8.674;2023-03-01T04:08:49;12.27;;;9.50;;
18711;SDS011;9485;49.386;8.674;2023-03-01T04:14:17;14.47;;;9.80;;
18711;SDS011;9485;49.386;8.674;2023-03-01T04:19:37;14.93;;;9.63;;
18711;SDS011;9485;49.386;8.674;2023-03-01T04:25:05;15.10;;;10.60;;
18711;SDS011;9485;49.386;8.674;2023-03-01T04:30:27;13.23;;;9.07;;
18711;SDS011;9485;49.386;8.674;2023-03-01T04:35:47;14.10;;;9.07;;
18711;SDS011;9485;49.386;8.674;2023-03-01T04:41:10;10.33;;;8.17;;
18711;SDS011;9485;49.386;8.674;2023-03-01T04:46:31;12.50;;;8.43;;
18711;SDS011;9485;49.386;8.674;2023-03-01T04:51:51;13.53;;;9.70;;
18711;SDS011;9485;49.386;8.674;2023-03-01T04:57:14;13.30;;;8.90;;
18711;SDS011;9485;49.386;8.674;2023-03-01T05:02:34;14.63;;;9.83;;
18711;SDS011;9485;49.386;8.674;2023-03-01T05:07:55;12.77;;;9.13;;
18711;SDS011;9485;49.386;8.674;2023-03-01T05:13:21;12.93;;;9.00;;
18711;SDS011;9485;49.386;8.674;2023-03-01T05:18:41;12.40;;;8.60;;
18711;SDS011;9485;49.386;8.674;2023-03-01T05:24:02;14.63;;;9.40;;
18711;SDS011;9485;49.386;8.674;2023-03-01T05:29:31;14.03;;;9.10;;
18711;SDS011;9485;49.386;8.674;2023-03-01T05:34:53;14.30;;;9.47;;
18711;SDS011;9485;49.386;8.674;2023-03-01T05:40:14;14.67;;;9.40;;
18711;SDS011;9485;49.386;8.674;2023-03-01T05:45:39;13.37;;;9.80;;
18711;SDS011;9485;49.386;8.674;2023-03-01T05:51:05;13.10;;;9.60;;
18711;SDS011;9485;49.386;8.674;2023-03-01T05:56:26;14.83;;;9.90;;
18711;SDS011;9485;49.386;8.674;2023-03-01T06:01:48;15.60;;;10.57;;
18711;SDS011;9485;49.386;8.674;2023-03-01T06:07:08;16.43;;;10.23;;
18711;SDS011;9485;49.386;8.674;2023-03-01T06:12:30;14.17;;;9.43;;
18711;SDS011;9485;49.386;8.674;2023-03-01T06:17:53;16.63;;;10.53;;
18711;SDS011;9485;49.386;8.674;2023-03-01T06:23:16;15.30;;;9.73;;
18711;SDS011;9485;49.386;8.674;2023-03-01T06:28:37;16.10;;;10.23;;
18711;SDS011;9485;49.386;8.674;2023-03-01T06:33:59;15.80;;;10.27;;
18711;SDS011;9485;49.386;8.674;2023-03-01T06:39:20;12.27;;;8.90;;
18711;SDS011;9485;49.386;8.674;2023-03-01T06:44:41;13.77;;;9.30;;
18711;SDS011;9485;49.386;8.674;2023-03-01T06:50:04;12.63;;;9.10;;
18711;SDS011;9485;49.386;8.674;2023-03-01T06:55:26;14.37;;;10.57;;
18711;SDS011;9485;49.386;8.674;2023-03-01T07:00:48;15.50;;;9.23;;
18711;SDS011;9485;49.386;8.674;2023-03-01T07:06:12;16.30;;;10.67;;
18711;SDS011;9485;49.386;8.674;2023-03-01T07:11:34;16.00;;;9.97;;
18711;SDS011;9485;49.386;8.674;2023-03-01T07:16:55;18.30;;;11.63;;
18711;SDS011;9485;49.386;8.674;2023-03-01T07:22:18;17.17;;;10.73;;
18711;SDS011;9485;49.386;8.674;2023-03-01T07:27:40;18.60;;;11.67;;
18711;SDS011;9485;49.386;8.674;2023-03-01T07:33:03;16.13;;;11.17;;
18711;SDS011;9485;49.386;8.674;2023-03-01T07:38:28;18.23;;;12.20;;
18711;SDS011;9485;49.386;8.674;2023-03-01T07:43:53;15.43;;;10.83;;
18711;SDS011;9485;49.386;8.674;2023-03-01T07:49:15;16.33;;;11.47;;
18711;SDS011;9485;49.386;8.674;2023-03-01T07:54:38;20.17;;;12.10;;
18711;SDS011;9485;49.386;8.674;2023-03-01T08:00:06;16.50;;;11.57;;
18711;SDS011;9485;49.386;8.674;2023-03-01T08:05:32;15.40;;;10.43;;
18711;SDS011;9485;49.386;8.674;2023-03-01T08:10:55;16.43;;;10.63;;
18711;SDS011;9485;49.386;8.674;2023-03-01T08:16:17;12.43;;;9.80;;
18711;SDS011;9485;49.386;8.674;2023-03-01T08:21:39;16.10;;;10.60;;
18711;SDS011;9485;49.386;8.674;2023-03-01T08:27:03;14.00;;;9.60;;
18711;SDS011;9485;49.386;8.674;2023-03-01T08:32:24;15.07;;;10.00;;
18711;SDS011;9485;49.386;8.674;2023-03-01T08:37:45;14.70;;;9.23;;
18711;SDS011;9485;49.386;8.674;2023-03-01T08:43:08;14.93;;;9.53;;
18711;SDS011;9485;49.386;8.674;2023-03-01T08:48:30;17.17;;;11.30;;
18711;SDS011;9485;49.386;8.674;2023-03-01T08:53:51;12.70;;;9.67;;
18711;SDS011;9485;49.386;8.674;2023-03-01T08:59:16;12.23;;;9.30;;
18711;SDS011;9485;49.386;8.674;2023-03-01T09:04:40;12.87;;;9.60;;
18711;SDS011;9485;49.386;8.674;2023-03-01T09:10:04;12.83;;;9.83;;
18711;SDS011;9485;49.386;8.674;2023-03-01T09:15:28;13.40;;;9.17;;
18711;SDS011;9485;49.386;8.674;2023-03-01T09:20:49;14.20;;;10.90;;
18711;SDS011;9485;49.386;8.674;2023-03-01T09:26:14;17.97;;;11.10;;
18711;SDS011;9485;49.386;8.674;2023-03-01T09:31:45;13.40;;;9.53;;
18711;SDS011;9485;49.386;8.674;2023-03-01T09:37:13;14.17;;;10.70;;
18711;SDS011;9485;49.386;8.674;2023-03-01T09:42:34;16.00;;;10.20;;
18711;SDS011;9485;49.386;8.674;2023-03-01T09:48:12;17.77;;;10.83;;
18711;SDS011;9485;49.386;8.674;2023-03-01T09:53:40;16.53;;;11.43;;
18711;SDS011;9485;49.386;8.674;2023-03-01T09:59:03;13.47;;;10.10;;
18711;SDS011;9485;49.386;8.674;2023-03-01T10:04:44;12.23;;;9.60;;
18711;SDS011;9485;49.386;8.674;2023-03-01T10:10:15;14.57;;;10.73;;
18711;SDS011;9485;49.386;8.674;2023-03-01T10:15:49;12.40;;;9.60;;
18711;SDS011;9485;49.386;8.674;2023-03-01T10:21:19;13.63;;;10.57;;
18711;SDS011;9485;49.386;8.674;2023-03-01T10:26:47;13.93;;;10.03;;
18711;SDS011;9485;49.386;8.674;2023-03-01T10:32:14;13.87;;;10.00;;
18711;SDS011;9485;49.386;8.674;2023-03-01T10:37:38;14.03;;;9.97;;
18711;SDS011;9485;49.386;8.674;2023-03-01T10:43:19;12.60;;;9.93;;
18711;SDS011;9485;49.386;8.674;2023-03-01T10:48:44;12.47;;;9.20;;
18711;SDS011;9485;49.386;8.674;2023-03-01T10:54:06;12.20;;;9.38;;
18711;SDS011;9485;49.386;8.674;2023-03-01T10:59:45;10.13;;;8.13;;
18711;SDS011;9485;49.386;8.674;2023-03-01T11:05:32;10.40;;;8.70;;
18711;SDS011;9485;49.386;8.674;2023-03-01T11:11:04;10.47;;;8.90;;
18711;SDS011;9485;49.386;8.674;2023-03-01T11:16:45;9.47;;;8.47;;
18711;SDS011;9485;49.386;8.674;2023-03-01T11:22:11;9.17;;;8.07;;
18711;SDS011;9485;49.386;8.674;2023-03-01T11:27:36;10.70;;;8.03;;
18711;SDS011;9485;49.386;8.674;2023-03-01T11:33:11;9.50;;;8.37;;
18711;SDS011;9485;49.386;8.674;2023-03-01T11:38:43;11.77;;;9.00;;
18711;SDS011;9485;49.386;8.674;2023-03-01T11:44:11;12.17;;;8.83;;
18711;SDS011;9485;49.386;8.674;2023-03-01T11:49:59;12.17;;;7.97;;
18711;SDS011;9485;49.386;8.674;2023-03-01T11:55:42;10.03;;;7.67;;
18711;SDS011;9485;49.386;8.674;2023-03-01T12:01:35;11.40;;;8.60;;
18711;SDS011;9485;49.386;8.674;2023-03-01T12:07:20;11.13;;;8.57;;
18711;SDS011;9485;49.386;8.674;2023-03-01T12:12:58;10.60;;;8.17;;
18711;SDS011;9485;49.386;8.674;2023-03-01T12:19:10;12.93;;;9.43;;
18711;SDS011;9485;49.386;8.674;2023-03-01T12:24:51;11.30;;;8.60;;
18711;SDS011;9485;49.386;8.674;2023-03-01T12:36:49;9.68;;;7.68;;
18711;SDS011;9485;49.386;8.674;2023-03-01T12:42:40;9.75;;;8.20;;
18711;SDS011;9485;49.386;8.674;2023-03-01T12:48:20;8.32;;;7.22;;
18711;SDS011;9485;49.386;8.674;2023-03-01T12:54:00;7.63;;;6.53;;
18711;SDS011;9485;49.386;8.674;2023-03-01T12:59:34;7.85;;;6.57;;
18711;SDS011;9485;49.386;8.674;2023-03-01T13:05:07;8.73;;;7.00;;
18711;SDS011;9485;49.386;8.674;2023-03-01T13:10:53;9.30;;;7.43;;
18711;SDS011;9485;49.386;8.674;2023-03-01T13:16:21;9.85;;;7.53;;
18711;SDS011;9485;49.386;8.674;2023-03-01T13:22:01;8.57;;;6.95;;
18711;SDS011;9485;49.386;8.674;2023-03-01T13:27:49;9.00;;;7.18;;
18711;SDS011;9485;49.386;8.674;2023-03-01T13:33:33;9.77;;;7.50;;
18711;SDS011;9485;49.386;8.674;2023-03-01T13:39:02;10.03;;;7.80;;
18711;SDS011;9485;49.386;8.674;2023-03-01T13:44:47;9.17;;;7.83;;
18711;SDS011;9485;49.386;8.674;2023-03-01T13:50:15;8.43;;;6.97;;
18711;SDS011;9485;49.386;8.674;2023-03-01T13:55:41;8.27;;;7.00;;
18711;SDS011;9485;49.386;8.674;2023-03-01T14:01:07;8.10;;;7.03;;
18711;SDS011;9485;49.386;8.674;2023-03-01T14:06:41;7.80;;;6.80;;
18711;SDS011;9485;49.386;8.674;2023-03-01T14:12:05;9.33;;;7.17;;
18711;SDS011;9485;49.386;8.674;2023-03-01T14:17:44;9.97;;;7.17;;
18711;SDS011;9485;49.386;8.674;2023-03-01T14:23:17;9.87;;;6.60;;
18711;SDS011;9485;49.386;8.674;2023-03-01T14:28:41;8.17;;;7.10;;
18711;SDS011;9485;49.386;8.674;2023-03-01T14:34:05;9.77;;;7.00;;
18711;SDS011;9485;49.386;8.674;2023-03-01T14:39:26;8.93;;;6.80;;
18711;SDS011;9485;49.386;8.674;2023-03-01T14:44:48;8.47;;;7.20;;
18711;SDS011;9485;49.386;8.674;2023-03-01T14:50:18;8.37;;;6.50;;
18711;SDS011;9485;49.386;8.674;2023-03-01T14:55:46;10.27;;;7.73;;
18711;SDS011;9485;49.386;8.674;2023-03-01T15:01:12;9.43;;;7.10;;
18711;SDS011;9485;49.386;8.674;2023-03-01T15:06:41;11.70;;;7.63;;
18711;SDS011;9485;49.386;8.674;2023-03-01T15:17:56;9.23;;;7.33;;
18711;SDS011;9485;49.386;8.674;2023-03-01T15:23:25;10.03;;;7.67;;
18711;SDS011;9485;49.386;8.674;2023-03-01T15:28:51;9.90;;;7.83;;
18711;SDS011;9485;49.386;8.674;2023-03-01T15:34:22;9.20;;;7.20;;
18711;SDS011;9485;49.386;8.674;2023-03-01T15:39:53;10.33;;;7.10;;
18711;SDS011;9485;49.386;8.674;2023-03-01T15:45:21;9.57;;;6.87;;
18711;SDS011;9485;49.386;8.674;2023-03-01T15:50:53;9.73;;;6.90;;
18711;SDS011;9485;49.386;8.674;2023-03-01T15:56:18;16.03;;;11.30;;
18711;SDS011;9485;49.386;8.674;2023-03-01T16:01:40;12.03;;;8.33;;
18711;SDS011;9485;49.386;8.674;2023-03-01T16:07:02;10.10;;;7.20;;
18711;SDS011;9485;49.386;8.674;2023-03-01T16:12:25;8.83;;;6.90;;
18711;SDS011;9485;49.386;8.674;2023-03-01T16:17:46;9.23;;;6.63;;
18711;SDS011;9485;49.386;8.674;2023-03-01T16:23:14;10.83;;;6.80;;
18711;SDS011;9485;49.386;8.674;2023-03-01T16:28:37;9.77;;;6.80;;
18711;SDS011;9485;49.386;8.674;2023-03-01T16:34:00;10.40;;;6.87;;
18711;SDS011;9485;49.386;8.674;2023-03-01T16:39:28;10.63;;;6.67;;
18711;SDS011;9485;49.386;8.674;2023-03-01T16:44:55;8.40;;;6.60;;
18711;SDS011;9485;49.386;8.674;2023-03-01T16:56:04;8.70;;;6.63;;
18711;SDS011;9485;49.386;8.674;2023-03-01T17:01:32;13.77;;;6.83;;
18711;SDS011;9485;49.386;8.674;2023-03-01T17:06:56;8.83;;;6.50;;
18711;SDS011;9485;49.386;8.674;2023-03-01T17:12:17;9.73;;;6.93;;
18711;SDS011;9485;49.386;8.674;2023-03-01T17:17:39;9.90;;;6.47;;
18711;SDS011;9485;49.386;8.674;2023-03-01T17:23:00;10.70;;;7.43;;
18711;SDS011;9485;49.386;8.674;2023-03-01T17:28:21;10.73;;;7.67;;
18711;SDS011;9485;49.386;8.674;2023-03-01T17:33:45;11.50;;;7.33;;
18711;SDS011;9485;49.386;8.674;2023-03-01T17:39:05;10.53;;;8.13;;
18711;SDS011;9485;49.386;8.674;2023-03-01T17:44:27;11.23;;;7.47;;
18711;SDS011;9485;49.386;8.674;2023-03-01T17:49:49;10.57;;;7.23;;
18711;SDS011;9485;49.386;8.674;2023-03-01T17:55:10;9.20;;;7.07;;
18711;SDS011;9485;49.386;8.674;2023-03-01T18:00:31;7.67;;;6.67;;
18711;SDS011;9485;49.386;8.674;2023-03-01T18:05:53;12.10;;;7.87;;
18711;SDS011;9485;49.386;8.674;2023-03-01T18:11:14;14.00;;;7.90;;
18711;SDS011;9485;49.386;8.674;2023-03-01T18:16:35;10.17;;;7.03;;
18711;SDS011;9485;49.386;8.674;2023-03-01T18:21:59;9.43;;;7.17;;
18711;SDS011;9485;49.386;8.674;2023-03-01T18:27:20;13.37;;;8.27;;
18711;SDS011;9485;49.386;8.674;2023-03-01T18:32:40;10.67;;;7.93;;
18711;SDS011;9485;49.386;8.674;2023-03-01T18:38:04;11.00;;;7.43;;
18711;SDS011;9485;49.386;8.674;2023-03-01T18:43:24;13.40;;;8.00;;
18711;SDS011;9485;49.386;8.674;2023-03-01T18:48:47;10.37;;;7.20;;
18711;SDS011;9485;49.386;8.674;2023-03-01T18:54:11;11.83;;;7.47;;
18711;SDS011;9485;49.386;8.674;2023-03-01T18:59:31;12.60;;;7.50;;
18711;SDS011;9485;49.386;8.674;2023-03-01T19:04:52;12.07;;;7.80;;
18711;SDS011;9485;49.386;8.674;2023-03-01T19:10:19;11.10;;;7.80;;
18711;SDS011;9485;49.386;8.674;2023-03-01T19:15:40;13.23;;;8.83;;
18711;SDS011;9485;49.386;8.674;2023-03-01T19:21:02;11.40;;;7.73;;
18711;SDS011;9485;49.386;8.674;2023-03-01T19:26:25;11.93;;;7.63;;
18711;SDS011;9485;49.386;8.674;2023-03-01T19:31:47;15.20;;;8.47;;
18711;SDS011;9485;49.386;8.674;2023-03-01T19:37:08;12.27;;;8.17;;
18711;SDS011;9485;49.386;8.674;2023-03-01T19:42:30;12.23;;;8.03;;
18711;SDS011;9485;49.386;8.674;2023-03-01T19:47:51;10.97;;;7.87;;
18711;SDS011;9485;49.386;8.674;2023-03-01T19:53:12;13.77;;;8.97;;
18711;SDS011;9485;49.386;8.674;2023-03-01T19:58:35;11.57;;;8.30;;
18711;SDS011;9485;49.386;8.674;2023-03-01T20:03:57;14.20;;;8.30;;
18711;SDS011;9485;49.386;8.674;2023-03-01T20:09:19;13.13;;;9.50;;
18711;SDS011;9485;49.386;8.674;2023-03-01T20:14:42;13.10;;;9.20;;
18711;SDS011;9485;49.386;8.674;2023-03-01T20:20:03;14.80;;;9.57;;
18711;SDS011;9485;49.386;8.674;2023-03-01T20:25:24;12.40;;;8.60;;
18711;SDS011;9485;49.386;8.674;2023-03-01T20:30:46;13.23;;;8.67;;
18711;SDS011;9485;49.386;8.674;2023-03-01T20:36:07;12.37;;;9.00;;
18711;SDS011;9485;49.386;8.674;2023-03-01T20:41:28;12.07;;;9.27;;
18711;SDS011;9485;49.386;8.674;2023-03-01T20:46:50;16.10;;;10.20;;
18711;SDS011;9485;49.386;8.674;2023-03-01T20:52:11;12.67;;;9.20;;
18711;SDS011;9485;49.386;8.674;2023-03-01T20:57:32;13.37;;;9.00;;
18711;SDS011;9485;49.386;8.674;2023-03-01T21:02:55;12.73;;;8.63;;
18711;SDS011;9485;49.386;8.674;2023-03-01T21:08:15;14.10;;;8.97;;
18711;SDS011;9485;49.386;8.674;2023-03-01T21:13:36;13.90;;;9.23;;
18711;SDS011;9485;49.386;8.674;2023-03-01T21:18:58;12.43;;;9.60;;
18711;SDS011;9485;49.386;8.674;2023-03-01T21:24:20;13.50;;;9.00;;
18711;SDS011;9485;49.386;8.674;2023-03-01T21:29:42;12.93;;;10.13;;
18711;SDS011;9485;49.386;8.674;2023-03-01T21:35:07;17.10;;;11.47;;
18711;SDS011;9485;49.386;8.674;2023-03-01T21:40:28;16.37;;;11.07;;
18711;SDS011;9485;49.386;8.674;2023-03-01T21:45:48;15.60;;;10.90;;
18711;SDS011;9485;49.386;8.674;2023-03-01T21:51:11;13.77;;;9.50;;
18711;SDS011;9485;49.386;8.674;2023-03-01T21:56:34;14.70;;;10.53;;
18711;SDS011;9485;49.386;8.674;2023-03-01T22:01:56;17.20;;;11.40;;
18711;SDS011;9485;49.386;8.674;2023-03-01T22:07:18;15.60;;;9.73;;
18711;SDS011;9485;49.386;8.674;2023-03-01T22:12:39;15.90;;;11.37;;
18711;SDS011;9485;49.386;8.674;2023-03-01T22:18:00;18.17;;;11.90;;
18711;SDS011;9485;49.386;8.674;2023-03-01T22:23:23;17.43;;;11.70;;
18711;SDS011;9485;49.386;8.674;2023-03-01T22:28:44;18.73;;;11.67;;
18711;SDS011;9485;49.386;8.674;2023-03-01T22:34:04;17.73;;;11.63;;
18711;SDS011;9485;49.386;8.674;2023-03-01T22:39:26;16.70;;;11.53;;
18711;SDS011;9485;49.386;8.674;2023-03-01T22:44:47;21.40;;;12.03;;
18711;SDS011;9485;49.386;8.674;2023-03-01T22:50:11;17.53;;;11.20;;
18711;SDS011;9485;49.386;8.674;2023-03-01T22:55:34;18.57;;;12.47;;
18711;SDS011;9485;49.386;8.674;2023-03-01T23:00:55;16.00;;;11.40;;
18711;SDS011;9485;49.386;8.674;2023-03-01T23:06:16;17.50;;;11.93;;
18711;SDS011;9485;49.386;8.674;2023-03-01T23:11:40;18.63;;;12.07;;
18711;SDS011;9485;49.386;8.674;2023-03-01T23:17:00;17.27;;;11.80;;
18711;SDS011;9485;49.386;8.674;2023-03-01T23:22:23;19.47;;;12.20;;
18711;SDS011;9485;49.386;8.674;2023-03-01T23:27:45;17.13;;;11.20;;
18711;SDS011;9485;49.386;8.674;2023-03-01T23:33:05;18.40;;;12.03;;
18711;SDS011;9485;49.386;8.674;2023-03-01T23:38:26;20.20;;;13.53;;
18711;SDS011;9485;49.386;8.674;2023-03-01T23:43:49;21.33;;;12.93;;
18711;SDS011;9485;49.386;8.674;2023-03-01T23:49:12;17.83;;;11.13;;
18711;SDS011;9485;49.386;8.674;2023-03-01T23:54:35;18.10;;;11.77;;
18711;SDS011;9485;49.386;8.674;2023-03-01T23:59:57;22.07;;;13.17;;
